createdAt,value
2022-10-31T00:00:20.984Z,100446.44
2022-10-31T00:01:31.381Z,100445.88
2022-10-31T00:02:18.362Z,100444.44
2022-10-31T00:03:05.282Z,100448.59
2022-10-31T00:03:52.383Z,100452.31
2022-10-31T00:04:39.190Z,100450.72
2022-10-31T00:05:26.073Z,100448.28
2022-10-31T00:06:13.010Z,100449.12
2022-10-31T00:06:59.886Z,100446.78
2022-10-31T00:07:46.770Z,100451.00
2022-10-31T00:08:33.710Z,100452.03
2022-10-31T00:09:20.621Z,100453.03
2022-10-31T00:10:08.454Z,100448.66
2022-10-31T00:10:55.406Z,100456.78
2022-10-31T00:11:42.209Z,100455.91
2022-10-31T00:12:29.138Z,100456.78
2022-10-31T00:13:16.637Z,100452.88
2022-10-31T00:14:03.775Z,100447.25
2022-10-31T00:14:50.663Z,100453.53
2022-10-31T00:15:41.546Z,100452.47
2022-10-31T00:16:29.666Z,100448.00
2022-10-31T00:17:16.536Z,100447.50
2022-10-31T00:18:04.681Z,100451.25
2022-10-31T00:18:57.488Z,100450.87
2022-10-31T00:19:44.464Z,100454.25
2022-10-31T00:20:31.944Z,100446.78
2022-10-31T00:21:18.974Z,100442.03
2022-10-31T00:22:05.962Z,100449.03
2022-10-31T00:22:52.896Z,100451.41
2022-10-31T00:23:39.822Z,100442.78
2022-10-31T00:24:26.774Z,100446.50
2022-10-31T00:25:13.896Z,100443.75
2022-10-31T00:26:05.209Z,100454.22
2022-10-31T00:26:52.066Z,100439.28
2022-10-31T00:27:38.947Z,100439.47
2022-10-31T00:28:26.023Z,100441.91
2022-10-31T00:29:14.031Z,100441.38
2022-10-31T00:30:00.913Z,100444.28
2022-10-31T00:30:47.763Z,100448.19
2022-10-31T00:31:34.697Z,100442.69
2022-10-31T00:32:21.577Z,100449.12
2022-10-31T00:33:08.508Z,100441.84
2022-10-31T00:33:55.553Z,100442.19
2022-10-31T00:34:42.375Z,100440.97
2022-10-31T00:35:29.261Z,100438.56
2022-10-31T00:36:18.764Z,100444.97
2022-10-31T00:37:05.597Z,100440.72
2022-10-31T00:37:53.795Z,100442.84
2022-10-31T00:38:41.134Z,100438.94
2022-10-31T00:39:28.061Z,100440.91
2022-10-31T00:40:15.015Z,100439.78
2022-10-31T00:41:01.937Z,100440.63
2022-10-31T00:41:48.821Z,100443.16
2022-10-31T00:42:35.784Z,100431.66
2022-10-31T00:43:22.805Z,100442.31
2022-10-31T00:44:09.813Z,100436.03
2022-10-31T00:44:56.677Z,100435.38
2022-10-31T00:45:44.145Z,100435.12
2022-10-31T00:46:31.132Z,100437.06
2022-10-31T00:47:18.026Z,100442.47
2022-10-31T00:48:05.909Z,100437.41
2022-10-31T00:48:52.938Z,100438.72
2022-10-31T00:49:39.903Z,100439.28
2022-10-31T00:50:26.791Z,100432.75
2022-10-31T00:51:13.634Z,100439.50
2022-10-31T00:52:00.548Z,100433.06
2022-10-31T00:52:47.440Z,100439.00
2022-10-31T00:53:34.425Z,100440.87
2022-10-31T00:54:21.361Z,100439.00
2022-10-31T00:55:08.535Z,100439.66
2022-10-31T00:55:55.441Z,100439.12
2022-10-31T00:56:42.347Z,100437.91
2022-10-31T00:57:29.178Z,100444.91
2022-10-31T00:58:16.168Z,100440.03
2022-10-31T00:59:03.076Z,100446.19
2022-10-31T00:59:49.983Z,100442.47
2022-10-31T01:00:36.996Z,100437.72
2022-10-31T01:01:24.042Z,100434.63
2022-10-31T01:02:11.110Z,100438.38
2022-10-31T01:02:58.357Z,100431.44
2022-10-31T01:03:45.451Z,100441.91
2022-10-31T01:04:32.554Z,100438.38
2022-10-31T01:05:19.581Z,100440.78
2022-10-31T01:06:12.310Z,100434.53
2022-10-31T01:06:59.188Z,100439.12
2022-10-31T01:07:46.057Z,100433.37
2022-10-31T01:08:33.019Z,100438.44
2022-10-31T01:09:20.094Z,100431.06
2022-10-31T01:10:08.136Z,100437.97
2022-10-31T01:11:12.762Z,100434.41
2022-10-31T01:11:59.707Z,100432.38
2022-10-31T01:12:49.075Z,100438.34
2022-10-31T01:13:36.712Z,100435.62
2022-10-31T01:14:23.628Z,100428.62
2022-10-31T01:15:12.203Z,100428.16
2022-10-31T01:16:00.540Z,100424.03
2022-10-31T01:16:47.478Z,100427.22
2022-10-31T01:17:34.488Z,100422.97
2022-10-31T01:18:21.372Z,100425.56
2022-10-31T01:19:08.437Z,100414.53
2022-10-31T01:19:55.365Z,100427.16
2022-10-31T01:20:42.254Z,100426.41
2022-10-31T01:21:30.253Z,100428.09
2022-10-31T01:22:17.134Z,100425.75
2022-10-31T01:23:04.037Z,100418.84
2022-10-31T01:23:52.257Z,100421.34
2022-10-31T01:24:39.179Z,100423.06
2022-10-31T01:25:26.129Z,100422.00
2022-10-31T01:26:24.683Z,100423.41
2022-10-31T01:27:11.611Z,100418.94
2022-10-31T01:27:58.850Z,100423.19
2022-10-31T01:28:48.565Z,100428.44
2022-10-31T01:29:35.529Z,100424.34
2022-10-31T01:30:22.431Z,100419.41
2022-10-31T01:31:10.328Z,100413.03
2022-10-31T01:31:57.260Z,100425.25
2022-10-31T01:32:44.138Z,100421.31
2022-10-31T01:33:31.157Z,100419.84
2022-10-31T01:34:18.878Z,100415.47
2022-10-31T01:35:05.950Z,100418.53
2022-10-31T01:35:52.893Z,100419.84
2022-10-31T01:36:39.800Z,100424.25
2022-10-31T01:37:26.746Z,100419.94
2022-10-31T01:38:13.662Z,100425.62
2022-10-31T01:39:05.449Z,100425.16
2022-10-31T01:39:52.416Z,100422.28
2022-10-31T01:40:39.295Z,100424.97
2022-10-31T01:41:29.229Z,100419.84
2022-10-31T01:42:21.682Z,100413.09
2022-10-31T01:43:14.185Z,100414.25
2022-10-31T01:44:03.648Z,100410.13
2022-10-31T01:44:55.121Z,100414.72
2022-10-31T01:45:43.333Z,100415.00
2022-10-31T01:46:43.188Z,100414.25
2022-10-31T01:47:43.959Z,100417.69
2022-10-31T01:48:32.490Z,100407.59
2022-10-31T01:49:19.282Z,100413.34
2022-10-31T01:50:12.501Z,100406.37
2022-10-31T01:50:59.358Z,100404.97
2022-10-31T01:52:11.955Z,100401.44
2022-10-31T01:52:59.409Z,100405.19
2022-10-31T01:53:47.375Z,100406.91
2022-10-31T01:54:37.455Z,100400.50
2022-10-31T01:55:30.653Z,100404.03
2022-10-31T01:56:18.166Z,100413.16
2022-10-31T01:57:07.117Z,100401.59
2022-10-31T01:57:56.711Z,100403.66
2022-10-31T01:58:43.860Z,100398.06
2022-10-31T01:59:32.398Z,100404.69
2022-10-31T02:00:20.879Z,100396.09
2022-10-31T02:01:08.324Z,100405.81
2022-10-31T02:01:55.952Z,100405.44
2022-10-31T02:02:43.682Z,100403.94
2022-10-31T02:03:32.388Z,100397.31
2022-10-31T02:04:20.385Z,100405.31
2022-10-31T02:05:12.371Z,100394.97
2022-10-31T02:05:59.650Z,100395.63
2022-10-31T02:06:55.066Z,100394.03
2022-10-31T02:07:54.849Z,100391.31
2022-10-31T02:08:41.949Z,100398.44
2022-10-31T02:09:30.736Z,100391.25
2022-10-31T02:10:18.120Z,100403.31
2022-10-31T02:11:05.448Z,100401.81
2022-10-31T02:11:57.730Z,100402.72
2022-10-31T02:12:45.659Z,100401.78
2022-10-31T02:13:32.648Z,100396.63
2022-10-31T02:14:20.784Z,100403.09
2022-10-31T02:15:09.876Z,100399.59
2022-10-31T02:16:00.126Z,100395.50
2022-10-31T02:16:46.960Z,100397.53
2022-10-31T02:17:34.555Z,100389.34
2022-10-31T02:18:22.009Z,100392.25
2022-10-31T02:19:09.665Z,100394.41
2022-10-31T02:20:06.130Z,100394.88
2022-10-31T02:21:14.184Z,100394.41
2022-10-31T02:22:14.502Z,100392.38
2022-10-31T02:23:29.396Z,100397.56
2022-10-31T02:24:47.236Z,100398.44
2022-10-31T02:26:05.365Z,100394.22
2022-10-31T02:27:11.536Z,100397.50
2022-10-31T02:28:07.538Z,100395.00
2022-10-31T02:29:06.530Z,100404.97
2022-10-31T02:30:13.673Z,100397.06
2022-10-31T02:31:14.114Z,100394.78
2022-10-31T02:32:07.190Z,100404.62
2022-10-31T02:33:12.626Z,100400.28
2022-10-31T02:34:04.427Z,100405.16
2022-10-31T02:35:00.168Z,100400.25
2022-10-31T02:36:12.065Z,100401.72
2022-10-31T02:37:19.893Z,100399.34
2022-10-31T02:38:38.052Z,100395.44
2022-10-31T02:39:32.618Z,100403.47
2022-10-31T02:40:31.548Z,100399.56
2022-10-31T02:41:29.009Z,100401.59
2022-10-31T02:42:35.438Z,100402.34
2022-10-31T02:43:28.959Z,100401.50
2022-10-31T02:44:32.200Z,100394.69
2022-10-31T02:45:32.057Z,100404.41
2022-10-31T02:46:22.049Z,100399.13
2022-10-31T02:47:08.805Z,100397.44
2022-10-31T02:47:58.018Z,100404.25
2022-10-31T02:48:46.148Z,100403.66
2022-10-31T02:49:49.797Z,100404.22
2022-10-31T02:50:40.770Z,100399.94
2022-10-31T02:51:28.079Z,100401.91
2022-10-31T02:52:35.572Z,100407.69
2022-10-31T02:53:22.527Z,100407.13
2022-10-31T02:54:25.802Z,100404.47
2022-10-31T02:55:34.477Z,100404.94
2022-10-31T02:56:21.528Z,100403.44
2022-10-31T02:57:08.772Z,100406.31
2022-10-31T02:58:08.593Z,100413.28
2022-10-31T02:59:01.277Z,100407.72
2022-10-31T02:59:52.176Z,100403.50
2022-10-31T03:00:53.365Z,100408.38
2022-10-31T03:02:06.958Z,100407.72
2022-10-31T03:02:57.130Z,100407.53
2022-10-31T03:03:56.261Z,100410.34
2022-10-31T03:04:43.197Z,100406.47
2022-10-31T03:05:51.179Z,100410.34
2022-10-31T03:06:55.901Z,100411.88
2022-10-31T03:07:49.717Z,100405.38
2022-10-31T03:08:59.066Z,100404.38
2022-10-31T03:10:06.503Z,100401.22
2022-10-31T03:11:01.522Z,100400.84
2022-10-31T03:11:58.026Z,100413.37
2022-10-31T03:12:55.532Z,100405.03
2022-10-31T03:13:43.027Z,100409.63
2022-10-31T03:15:08.574Z,100414.38
2022-10-31T03:16:06.490Z,100402.53
2022-10-31T03:16:54.542Z,100410.47
2022-10-31T03:18:11.191Z,100412.34
2022-10-31T03:19:07.613Z,100412.88
2022-10-31T03:19:57.616Z,100411.94
2022-10-31T03:20:51.088Z,100405.56
2022-10-31T03:21:44.218Z,100413.69
2022-10-31T03:22:32.775Z,100412.84
2022-10-31T03:23:20.910Z,100415.00
2022-10-31T03:24:08.521Z,100411.34
2022-10-31T03:24:56.415Z,100418.81
2022-10-31T03:25:44.278Z,100417.59
2022-10-31T03:26:31.591Z,100420.13
2022-10-31T03:27:25.402Z,100418.44
2022-10-31T03:28:13.829Z,100420.47
2022-10-31T03:29:08.015Z,100409.19
2022-10-31T03:29:57.943Z,100410.41
2022-10-31T03:30:46.283Z,100422.91
2022-10-31T03:31:46.340Z,100416.81
2022-10-31T03:32:38.302Z,100416.28
2022-10-31T03:33:30.218Z,100420.47
2022-10-31T03:34:18.702Z,100426.56
2022-10-31T03:35:07.523Z,100412.66
2022-10-31T03:35:56.896Z,100424.50
2022-10-31T03:36:45.568Z,100424.63
2022-10-31T03:37:34.127Z,100423.78
2022-10-31T03:38:21.208Z,100417.00
2022-10-31T03:39:11.077Z,100418.03
2022-10-31T03:40:00.085Z,100412.28
2022-10-31T03:40:48.269Z,100424.16
2022-10-31T03:41:39.456Z,100421.91
2022-10-31T03:42:27.486Z,100421.00
2022-10-31T03:43:18.863Z,100423.37
2022-10-31T03:44:10.405Z,100427.09
2022-10-31T03:44:58.122Z,100416.25
2022-10-31T03:45:47.552Z,100420.00
2022-10-31T03:46:34.916Z,100430.19
2022-10-31T03:47:21.764Z,100420.25
2022-10-31T03:48:08.642Z,100427.53
2022-10-31T03:48:55.852Z,100425.09
2022-10-31T03:49:43.205Z,100429.22
2022-10-31T03:50:40.898Z,100417.53
2022-10-31T03:51:43.739Z,100432.09
2022-10-31T03:52:37.366Z,100429.38
2022-10-31T03:53:28.350Z,100433.78
2022-10-31T03:54:25.178Z,100431.19
2022-10-31T03:55:20.073Z,100430.84
2022-10-31T03:56:36.843Z,100431.00
2022-10-31T03:57:31.172Z,100432.50
2022-10-31T03:58:27.591Z,100436.25
2022-10-31T03:59:36.865Z,100436.44
2022-10-31T04:00:23.738Z,100430.53
2022-10-31T04:01:13.141Z,100430.19
2022-10-31T04:02:05.166Z,100434.94
2022-10-31T04:03:30.895Z,100433.63
2022-10-31T04:04:18.115Z,100437.81
2022-10-31T04:05:05.880Z,100434.06
2022-10-31T04:05:55.650Z,100437.03
2022-10-31T04:06:44.356Z,100441.53
2022-10-31T04:07:35.862Z,100436.59
2022-10-31T04:08:26.333Z,100434.72
2022-10-31T04:09:13.101Z,100435.78
2022-10-31T04:10:01.915Z,100444.50
2022-10-31T04:10:50.084Z,100435.94
2022-10-31T04:11:45.346Z,100435.84
2022-10-31T04:12:33.042Z,100440.22
2022-10-31T04:13:24.533Z,100437.69
2022-10-31T04:14:13.065Z,100442.47
2022-10-31T04:15:00.396Z,100443.97
2022-10-31T04:15:47.555Z,100439.25
2022-10-31T04:16:34.516Z,100438.72
2022-10-31T04:17:24.060Z,100438.91
2022-10-31T04:18:10.951Z,100435.88
2022-10-31T04:18:57.810Z,100443.34
2022-10-31T04:19:44.886Z,100443.19
2022-10-31T04:20:37.029Z,100445.16
2022-10-31T04:21:31.076Z,100444.25
2022-10-31T04:22:18.012Z,100438.66
2022-10-31T04:23:05.472Z,100438.91
2022-10-31T04:23:52.377Z,100439.44
2022-10-31T04:24:41.388Z,100445.34
2022-10-31T04:25:28.500Z,100446.56
2022-10-31T04:26:15.555Z,100442.16
2022-10-31T04:27:02.400Z,100441.13
2022-10-31T04:27:49.305Z,100437.75
2022-10-31T04:28:36.154Z,100443.00
2022-10-31T04:29:23.132Z,100450.09
2022-10-31T04:30:10.547Z,100445.16
2022-10-31T04:30:57.516Z,100440.75
2022-10-31T04:31:44.423Z,100441.97
2022-10-31T04:32:31.324Z,100437.75
2022-10-31T04:33:18.367Z,100434.69
2022-10-31T04:34:05.363Z,100443.00
2022-10-31T04:34:52.199Z,100446.44
2022-10-31T04:35:39.022Z,100440.81
2022-10-31T04:36:25.999Z,100440.66
2022-10-31T04:37:12.910Z,100440.81
2022-10-31T04:37:59.794Z,100444.56
2022-10-31T04:38:46.731Z,100437.59
2022-10-31T04:39:33.800Z,100445.06
2022-10-31T04:40:20.644Z,100439.16
2022-10-31T04:41:07.614Z,100449.31
2022-10-31T04:41:54.633Z,100445.94
2022-10-31T04:42:41.569Z,100447.44
2022-10-31T04:43:28.452Z,100445.22
2022-10-31T04:44:15.237Z,100453.28
2022-10-31T04:45:02.075Z,100443.47
2022-10-31T04:45:49.001Z,100450.47
2022-10-31T04:46:35.837Z,100453.34
2022-10-31T04:47:22.743Z,100452.50
2022-10-31T04:48:09.628Z,100451.19
2022-10-31T04:48:56.485Z,100454.00
2022-10-31T04:49:43.310Z,100454.72
2022-10-31T04:50:30.393Z,100457.44
2022-10-31T04:51:17.295Z,100455.22
2022-10-31T04:52:04.414Z,100457.37
2022-10-31T04:52:51.297Z,100455.38
2022-10-31T04:53:38.178Z,100457.94
2022-10-31T04:54:25.083Z,100455.56
2022-10-31T04:55:13.286Z,100455.81
2022-10-31T04:56:01.988Z,100460.75
2022-10-31T04:56:48.958Z,100457.50
2022-10-31T04:57:46.608Z,100450.69
2022-10-31T04:58:33.625Z,100452.03
2022-10-31T04:59:21.092Z,100455.56
2022-10-31T05:00:08.565Z,100457.81
2022-10-31T05:00:56.901Z,100463.63
2022-10-31T05:01:43.917Z,100454.00
2022-10-31T05:02:30.898Z,100456.56
2022-10-31T05:03:17.794Z,100460.91
2022-10-31T05:04:04.824Z,100454.31
2022-10-31T05:04:51.730Z,100453.94
2022-10-31T05:05:38.769Z,100451.06
2022-10-31T05:06:25.591Z,100460.84
2022-10-31T05:07:12.492Z,100459.84
2022-10-31T05:07:59.576Z,100454.59
2022-10-31T05:08:46.517Z,100451.00
2022-10-31T05:09:33.537Z,100457.94
2022-10-31T05:10:24.058Z,100454.34
2022-10-31T05:11:10.811Z,100455.75
2022-10-31T05:11:57.656Z,100456.28
2022-10-31T05:12:49.237Z,100455.09
2022-10-31T05:13:36.094Z,100458.75
2022-10-31T05:14:23.040Z,100457.72
2022-10-31T05:15:10.250Z,100457.44
2022-10-31T05:15:57.170Z,100455.56
2022-10-31T05:16:44.018Z,100457.06
2022-10-31T05:17:32.589Z,100457.37
2022-10-31T05:18:19.540Z,100455.38
2022-10-31T05:19:06.732Z,100453.22
2022-10-31T05:19:53.711Z,100456.09
2022-10-31T05:20:40.571Z,100450.69
2022-10-31T05:21:27.496Z,100456.59
2022-10-31T05:22:14.556Z,100452.84
2022-10-31T05:23:01.629Z,100457.72
2022-10-31T05:23:48.756Z,100451.53
2022-10-31T05:24:37.410Z,100459.34
2022-10-31T05:25:27.497Z,100456.81
2022-10-31T05:26:14.412Z,100463.56
2022-10-31T05:27:01.398Z,100451.53
2022-10-31T05:27:49.525Z,100454.06
2022-10-31T05:28:36.407Z,100459.19
2022-10-31T05:29:23.303Z,100451.72
2022-10-31T05:30:11.955Z,100453.72
2022-10-31T05:30:58.799Z,100452.03
2022-10-31T05:31:45.701Z,100456.44
2022-10-31T05:32:40.800Z,100458.47
2022-10-31T05:33:27.734Z,100452.41
2022-10-31T05:34:14.852Z,100456.06
2022-10-31T05:35:01.816Z,100459.31
2022-10-31T05:35:49.318Z,100456.59
2022-10-31T05:36:36.278Z,100458.66
2022-10-31T05:37:23.280Z,100455.75
2022-10-31T05:38:10.359Z,100454.34
2022-10-31T05:38:57.283Z,100463.81
2022-10-31T05:39:44.212Z,100457.56
2022-10-31T05:40:31.107Z,100462.12
2022-10-31T05:41:18.077Z,100462.97
2022-10-31T05:42:05.097Z,100472.13
2022-10-31T05:42:53.905Z,100470.09
2022-10-31T05:43:40.846Z,100466.50
2022-10-31T05:44:27.819Z,100468.50
2022-10-31T05:45:17.322Z,100469.16
2022-10-31T05:46:04.273Z,100466.81
2022-10-31T05:46:51.090Z,100472.53
2022-10-31T05:47:38.082Z,100475.06
2022-10-31T05:48:25.089Z,100473.19
2022-10-31T05:49:12.128Z,100477.41
2022-10-31T05:49:58.982Z,100473.84
2022-10-31T05:50:45.922Z,100473.31
2022-10-31T05:51:32.808Z,100469.00
2022-10-31T05:52:19.856Z,100471.41
2022-10-31T05:53:06.961Z,100475.50
2022-10-31T05:53:53.845Z,100481.91
2022-10-31T05:54:40.779Z,100477.00
2022-10-31T05:55:28.248Z,100477.84
2022-10-31T05:56:15.131Z,100482.53
2022-10-31T05:57:02.148Z,100476.56
2022-10-31T05:57:49.015Z,100481.25
2022-10-31T05:58:35.831Z,100478.72
2022-10-31T05:59:22.751Z,100479.88
2022-10-31T06:00:10.422Z,100478.19
2022-10-31T06:00:57.238Z,100488.84
2022-10-31T06:01:44.260Z,100477.53
2022-10-31T06:02:35.650Z,100481.25
2022-10-31T06:03:22.703Z,100479.00
2022-10-31T06:04:09.806Z,100485.25
2022-10-31T06:04:56.742Z,100489.16
2022-10-31T06:05:43.762Z,100484.56
2022-10-31T06:06:30.637Z,100484.03
2022-10-31T06:07:17.783Z,100479.44
2022-10-31T06:08:05.077Z,100485.25
2022-10-31T06:08:52.113Z,100482.34
2022-10-31T06:09:39.025Z,100490.94
2022-10-31T06:10:26.151Z,100488.91
2022-10-31T06:11:13.181Z,100485.06
2022-10-31T06:12:00.057Z,100487.41
2022-10-31T06:12:47.069Z,100495.34
2022-10-31T06:13:33.894Z,100495.47
2022-10-31T06:14:20.827Z,100495.53
2022-10-31T06:15:09.478Z,100491.16
2022-10-31T06:15:56.536Z,100501.59
2022-10-31T06:16:43.491Z,100503.97
2022-10-31T06:17:30.334Z,100498.00
2022-10-31T06:18:17.310Z,100495.28
2022-10-31T06:19:04.316Z,100497.63
2022-10-31T06:19:51.352Z,100501.16
2022-10-31T06:20:38.211Z,100497.47
2022-10-31T06:21:25.534Z,100501.16
2022-10-31T06:22:12.835Z,100495.97
2022-10-31T06:23:00.093Z,100503.31
2022-10-31T06:23:47.194Z,100494.31
2022-10-31T06:24:34.280Z,100496.56
2022-10-31T06:25:21.327Z,100498.59
2022-10-31T06:26:08.277Z,100498.22
2022-10-31T06:26:55.238Z,100498.50
2022-10-31T06:27:42.206Z,100500.53
2022-10-31T06:28:29.178Z,100496.44
2022-10-31T06:29:16.133Z,100493.31
2022-10-31T06:30:03.100Z,100497.69
2022-10-31T06:30:50.009Z,100498.34
2022-10-31T06:31:36.956Z,100494.13
2022-10-31T06:32:24.372Z,100495.28
2022-10-31T06:33:11.393Z,100504.63
2022-10-31T06:33:58.307Z,100505.16
2022-10-31T06:34:45.365Z,100499.84
2022-10-31T06:35:33.016Z,100502.56
2022-10-31T06:36:19.915Z,100499.56
2022-10-31T06:37:11.258Z,100498.34
2022-10-31T06:37:58.377Z,100503.59
2022-10-31T06:38:45.601Z,100501.84
2022-10-31T06:39:32.513Z,100502.16
2022-10-31T06:40:19.427Z,100510.28
2022-10-31T06:41:07.230Z,100505.69
2022-10-31T06:41:54.199Z,100512.97
2022-10-31T06:42:41.136Z,100511.06
2022-10-31T06:43:28.313Z,100506.28
2022-10-31T06:44:15.452Z,100509.00
2022-10-31T06:45:02.415Z,100514.59
2022-10-31T06:45:49.316Z,100514.53
2022-10-31T06:46:36.182Z,100514.25
2022-10-31T06:47:23.086Z,100518.47
2022-10-31T06:48:18.422Z,100512.81
2022-10-31T06:49:05.661Z,100509.00
2022-10-31T06:49:52.580Z,100514.25
2022-10-31T06:50:39.462Z,100515.81
2022-10-31T06:51:26.351Z,100509.34
2022-10-31T06:52:13.277Z,100517.84
2022-10-31T06:53:00.486Z,100517.84
2022-10-31T06:53:47.554Z,100514.59
2022-10-31T06:54:34.534Z,100513.94
2022-10-31T06:55:23.822Z,100514.97
2022-10-31T06:56:10.715Z,100512.59
2022-10-31T06:56:57.557Z,100511.41
2022-10-31T06:57:51.050Z,100515.16
2022-10-31T06:58:37.868Z,100515.44
2022-10-31T06:59:25.535Z,100513.28
2022-10-31T07:00:12.888Z,100511.94
2022-10-31T07:01:02.958Z,100513.16
2022-10-31T07:01:50.076Z,100510.63
2022-10-31T07:02:37.084Z,100504.09
2022-10-31T07:03:24.036Z,100510.34
2022-10-31T07:04:11.795Z,100518.75
2022-10-31T07:04:58.717Z,100516.53
2022-10-31T07:05:45.879Z,100513.09
2022-10-31T07:06:32.911Z,100516.62
2022-10-31T07:07:22.386Z,100513.66
2022-10-31T07:08:11.949Z,100520.91
2022-10-31T07:08:58.829Z,100512.78
2022-10-31T07:09:45.922Z,100520.38
2022-10-31T07:10:37.270Z,100517.78
2022-10-31T07:11:27.245Z,100527.03
2022-10-31T07:12:14.267Z,100528.63
2022-10-31T07:13:03.576Z,100526.28
2022-10-31T07:13:50.541Z,100524.03
2022-10-31T07:14:37.447Z,100518.56
2022-10-31T07:15:25.782Z,100514.81
2022-10-31T07:16:14.120Z,100515.97
2022-10-31T07:17:01.088Z,100516.59
2022-10-31T07:17:48.052Z,100519.78
2022-10-31T07:18:35.315Z,100520.34
2022-10-31T07:19:22.170Z,100517.84
2022-10-31T07:20:09.735Z,100522.38
2022-10-31T07:20:56.716Z,100519.13
2022-10-31T07:21:43.601Z,100516.88
2022-10-31T07:22:35.806Z,100516.34
2022-10-31T07:23:23.515Z,100516.97
2022-10-31T07:24:10.447Z,100517.59
2022-10-31T07:24:57.448Z,100513.78
2022-10-31T07:25:44.350Z,100520.72
2022-10-31T07:26:31.327Z,100521.53
2022-10-31T07:27:18.235Z,100516.03
2022-10-31T07:28:05.241Z,100523.34
2022-10-31T07:28:52.209Z,100518.59
2022-10-31T07:29:39.123Z,100520.25
2022-10-31T07:30:26.031Z,100516.31
2022-10-31T07:31:12.954Z,100532.88
2022-10-31T07:31:59.828Z,100529.59
2022-10-31T07:32:51.290Z,100532.00
2022-10-31T07:33:38.227Z,100529.03
2022-10-31T07:34:25.101Z,100528.47
2022-10-31T07:35:15.402Z,100529.97
2022-10-31T07:36:02.354Z,100526.06
2022-10-31T07:36:49.281Z,100535.69
2022-10-31T07:37:36.530Z,100527.81
2022-10-31T07:38:23.514Z,100531.50
2022-10-31T07:39:10.568Z,100527.25
2022-10-31T07:39:57.599Z,100529.63
2022-10-31T07:40:44.959Z,100532.69
2022-10-31T07:41:31.912Z,100527.47
2022-10-31T07:42:18.790Z,100527.00
2022-10-31T07:43:08.854Z,100531.75
2022-10-31T07:44:00.285Z,100529.44
2022-10-31T07:44:47.295Z,100531.19
2022-10-31T07:45:34.319Z,100531.66
2022-10-31T07:46:22.916Z,100532.50
2022-10-31T07:47:09.758Z,100535.37
2022-10-31T07:47:57.007Z,100530.44
2022-10-31T07:48:44.049Z,100536.91
2022-10-31T07:49:30.926Z,100536.91
2022-10-31T07:50:29.051Z,100530.75
2022-10-31T07:51:15.958Z,100528.87
2022-10-31T07:52:02.883Z,100537.84
2022-10-31T07:52:50.199Z,100532.81
2022-10-31T07:53:37.070Z,100534.53
2022-10-31T07:54:24.089Z,100538.09
2022-10-31T07:55:11.267Z,100539.88
2022-10-31T07:55:58.295Z,100542.34
2022-10-31T07:56:45.196Z,100538.75
2022-10-31T07:57:34.703Z,100534.53
2022-10-31T07:58:21.705Z,100543.25
2022-10-31T07:59:08.645Z,100537.81
2022-10-31T07:59:55.459Z,100537.56
2022-10-31T08:00:45.177Z,100532.50
2022-10-31T08:01:32.212Z,100538.97
2022-10-31T08:02:19.315Z,100539.41
2022-10-31T08:03:14.738Z,100537.19
2022-10-31T08:04:01.640Z,100543.44
2022-10-31T08:04:48.802Z,100540.53
2022-10-31T08:05:36.478Z,100540.34
2022-10-31T08:06:23.409Z,100534.81
2022-10-31T08:07:10.315Z,100540.34
2022-10-31T08:07:57.732Z,100539.88
2022-10-31T08:08:44.887Z,100541.34
2022-10-31T08:09:31.746Z,100541.44
2022-10-31T08:10:18.688Z,100548.06
2022-10-31T08:11:05.831Z,100545.78
2022-10-31T08:11:54.215Z,100543.69
2022-10-31T08:12:41.133Z,100547.91
2022-10-31T08:13:28.178Z,100546.03
2022-10-31T08:14:15.129Z,100550.59
2022-10-31T08:15:03.247Z,100546.84
2022-10-31T08:15:53.009Z,100548.91
2022-10-31T08:16:39.914Z,100548.66
2022-10-31T08:17:26.914Z,100545.56
2022-10-31T08:18:14.732Z,100547.09
2022-10-31T08:19:01.758Z,100543.38
2022-10-31T08:19:48.640Z,100542.84
2022-10-31T08:20:35.481Z,100542.37
2022-10-31T08:21:22.920Z,100550.13
2022-10-31T08:22:09.749Z,100545.56
2022-10-31T08:23:01.454Z,100546.41
2022-10-31T08:23:48.390Z,100538.53
2022-10-31T08:24:35.414Z,100541.63
2022-10-31T08:25:22.562Z,100540.97
2022-10-31T08:26:09.503Z,100547.06
2022-10-31T08:26:56.377Z,100545.22
2022-10-31T08:27:43.306Z,100547.16
2022-10-31T08:28:30.185Z,100545.84
2022-10-31T08:29:17.262Z,100545.78
2022-10-31T08:30:04.538Z,100535.31
2022-10-31T08:30:51.546Z,100543.06
2022-10-31T08:31:42.628Z,100546.16
2022-10-31T08:32:29.806Z,100536.59
2022-10-31T08:33:18.488Z,100538.63
2022-10-31T08:34:05.579Z,100537.88
2022-10-31T08:34:52.466Z,100536.50
2022-10-31T08:35:39.609Z,100533.59
2022-10-31T08:36:26.572Z,100536.59
2022-10-31T08:37:13.432Z,100534.94
2022-10-31T08:38:01.439Z,100536.41
2022-10-31T08:38:49.171Z,100531.47
2022-10-31T08:39:36.052Z,100526.16
2022-10-31T08:40:24.186Z,100534.53
2022-10-31T08:41:11.245Z,100528.28
2022-10-31T08:41:58.176Z,100529.97
2022-10-31T08:42:45.127Z,100536.03
2022-10-31T08:43:32.072Z,100526.25
2022-10-31T08:44:19.003Z,100525.19
2022-10-31T08:45:06.220Z,100530.16
2022-10-31T08:45:55.656Z,100527.81
2022-10-31T08:46:42.690Z,100528.22
2022-10-31T08:47:29.867Z,100522.31
2022-10-31T08:48:18.023Z,100533.47
2022-10-31T08:49:04.828Z,100526.44
2022-10-31T08:49:51.658Z,100529.06
2022-10-31T08:50:39.337Z,100532.03
2022-10-31T08:51:26.228Z,100530.75
2022-10-31T08:52:14.518Z,100526.91
2022-10-31T08:53:05.802Z,100527.38
2022-10-31T08:53:53.328Z,100520.25
2022-10-31T08:54:40.159Z,100519.69
2022-10-31T08:55:27.020Z,100526.81
2022-10-31T08:56:13.939Z,100520.91
2022-10-31T08:57:01.012Z,100519.34
2022-10-31T08:57:47.970Z,100525.34
2022-10-31T08:58:39.912Z,100525.69
2022-10-31T08:59:27.244Z,100529.53
2022-10-31T09:00:14.344Z,100528.41
2022-10-31T09:01:02.161Z,100530.47
2022-10-31T09:01:49.233Z,100532.69
2022-10-31T09:02:36.413Z,100527.00
2022-10-31T09:03:25.337Z,100533.16
2022-10-31T09:04:12.284Z,100527.16
2022-10-31T09:04:59.121Z,100535.97
2022-10-31T09:05:46.964Z,100533.91
2022-10-31T09:06:33.962Z,100531.38
2022-10-31T09:07:21.401Z,100544.09
2022-10-31T09:08:14.741Z,100530.62
2022-10-31T09:09:01.877Z,100535.31
2022-10-31T09:09:48.805Z,100537.12
2022-10-31T09:10:37.374Z,100537.19
2022-10-31T09:11:24.275Z,100538.41
2022-10-31T09:12:11.150Z,100529.31
2022-10-31T09:12:59.684Z,100538.69
2022-10-31T09:13:46.546Z,100537.38
2022-10-31T09:14:33.492Z,100542.69
2022-10-31T09:15:20.461Z,100536.53
2022-10-31T09:16:07.806Z,100532.16
2022-10-31T09:16:54.731Z,100536.47
2022-10-31T09:17:47.910Z,100536.47
2022-10-31T09:18:35.040Z,100537.59
2022-10-31T09:19:21.904Z,100529.44
2022-10-31T09:20:09.332Z,100534.97
2022-10-31T09:20:59.315Z,100537.22
2022-10-31T09:21:46.160Z,100534.31